Fayetteville Regional Grannis Field Fayetteville US
ICAO: KFAY
IATA: FAY
Category: Medium
Scheduled Services: Yes

Elevation: 189 ft
TransAlt. 18000 ft.

Airport Communications:
APP/DEP:125.175
ATIS:121.25
GND:121.7
RALEIGH RDO:25.54
TWR:118.3
UNICOM:122.95

KFAY Zoom In..

If you have problems with the map follow the link
https://www.worldairports.se/pages/airport.php?
ICAO=KFAY

Runways:

(A) RW 04 length 7709 ft width 150 ft
ILS 110.50 / hdg 38

(B) RW 10 length 4801 ft width 150 ft
---- / hdg 98

(C) RW 22 length 7709 ft width 150 ft
---- / hdg 218

(D) RW 28 length 4801 ft width 150 ft
---- / hdg 278

Location; KFAY
Day. 14 / Time. 11.09 Zulu
* Altimeter: 30.28
* Temperature: 09° c. 48.2°f.
* Wind from: 030° Speed 07 kn.
Dewpoint: 07° c.
Visibility: 10 Statute Miles.
Clouds: Scattered 800 ft.
Clouds: Overcast 2100 ft.

KFAY 141109Z 03007KT 10SM SCT008 OVC021 09/07 A3028 RMK AO2 T00890072


Wind From 030°
Speed 07 kn.

 
 
jpsmedia.com for Web Design worldairports.se 2018   terms of use